Time;durP1;ratioP1;P1;durP2;ratioP2;P2;SDS_P1;SDS_P2;PMS_P1;PMS_P2;Temp;Humidity;BMP_temperature;BMP_pressure;BME280_temperature;BME280_humidity;BME280_pressure;Samples;Min_cycle;Max_cycle;Signal;HPM_P1;HPM_P2
2024/04/04 00:01:20;;;;;;;3.20;1.27;;;;;;;;;;5080342;28;20689;-66
2024/04/04 00:03:46;;;;;;;1.63;1.20;;;;;;;;;;5084429;28;20912;-66
2024/04/04 00:06:13;;;;;;;1.33;1.23;;;;;;;;;;5090140;28;20463;-66
2024/04/04 00:08:39;;;;;;;1.40;1.30;;;;;;;;;;5090259;28;20439;-66
2024/04/04 00:11:10;;;;;;;1.10;1.10;;;;;;;;;;5090580;28;20443;-66
2024/04/04 00:13:36;;;;;;;1.50;1.40;;;;;;;;;;5092475;28;20477;-66
2024/04/04 00:16:05;;;;;;;1.47;1.37;;;;;;;;;;5092413;28;20897;-66
2024/04/04 00:18:32;;;;;;;3.40;1.27;;;;;;;;;;5092114;28;21081;-66
2024/04/04 00:20:59;;;;;;;1.53;1.43;;;;;;;;;;5092176;28;20541;-66
2024/04/04 00:23:25;;;;;;;2.60;1.23;;;;;;;;;;5091933;28;21008;-66
2024/04/04 00:25:53;;;;;;;1.50;1.40;;;;;;;;;;5092269;28;20837;-66
2024/04/04 00:28:19;;;;;;;1.67;1.03;;;;;;;;;;5092276;28;20474;-66
2024/04/04 00:30:46;;;;;;;2.40;1.27;;;;;;;;;;5092106;28;20446;-67
2024/04/04 00:33:13;;;;;;;1.33;1.20;;;;;;;;;;5091995;28;20529;-66
2024/04/04 00:35:41;;;;;;;2.00;1.50;;;;;;;;;;5092062;28;20454;-66
2024/04/04 00:38:07;;;;;;;3.40;1.47;;;;;;;;;;5092067;28;20533;-67
2024/04/04 00:40:37;;;;;;;1.00;1.00;;;;;;;;;;5092126;28;20588;-67
2024/04/04 00:43:04;;;;;;;1.63;1.53;;;;;;;;;;5091930;28;20454;-66
2024/04/04 00:45:31;;;;;;;1.33;1.23;;;;;;;;;;5091838;28;20474;-66
2024/04/04 00:47:58;;;;;;;1.17;1.07;;;;;;;;;;5091856;28;20450;-67
2024/04/04 00:50:27;;;;;;;2.10;1.10;;;;;;;;;;5091629;28;20866;-66
2024/04/04 00:52:54;;;;;;;4.20;1.47;;;;;;;;;;5091589;28;20940;-66
2024/04/04 00:55:21;;;;;;;2.80;1.07;;;;;;;;;;5091912;28;20918;-66
2024/04/04 00:57:48;;;;;;;2.67;2.47;;;;;;;;;;5091730;28;20874;-66
2024/04/04 01:00:15;;;;;;;3.67;2.13;;;;;;;;;;5091556;28;20564;-66
2024/04/04 01:02:41;;;;;;;1.40;1.20;;;;;;;;;;5091267;28;20484;-67
2024/04/04 01:05:08;;;;;;;1.10;1.10;;;;;;;;;;5090695;28;20477;-66
2024/04/04 01:07:36;;;;;;;2.53;1.00;;;;;;;;;;5091367;28;20445;-66
2024/04/04 01:10:07;;;;;;;1.00;1.00;;;;;;;;;;5091266;28;20488;-66
2024/04/04 01:12:33;;;;;;;1.50;0.93;;;;;;;;;;5090806;28;20534;-66
2024/04/04 01:15:00;;;;;;;1.60;1.30;;;;;;;;;;5091115;28;20469;-66
2024/04/04 01:17:26;;;;;;;1.80;0.83;;;;;;;;;;5091140;28;20979;-66
2024/04/04 01:19:53;;;;;;;0.83;0.80;;;;;;;;;;5090987;28;21025;-66
2024/04/04 01:22:20;;;;;;;1.10;0.87;;;;;;;;;;5090897;28;21473;-67
2024/04/04 01:24:48;;;;;;;3.23;1.27;;;;;;;;;;5090915;28;20849;-67
2024/04/04 01:27:14;;;;;;;3.60;1.67;;;;;;;;;;5090981;28;20608;-67
2024/04/04 01:29:41;;;;;;;1.00;0.90;;;;;;;;;;5091158;28;20522;-66
2024/04/04 01:32:07;;;;;;;1.33;1.23;;;;;;;;;;5090743;28;20459;-66
2024/04/04 01:34:35;;;;;;;0.83;0.83;;;;;;;;;;5090948;28;20494;-67
2024/04/04 01:37:01;;;;;;;1.67;1.50;;;;;;;;;;5090771;28;20461;-66
2024/04/04 01:39:28;;;;;;;2.40;1.70;;;;;;;;;;5090706;28;20495;-66
2024/04/04 01:41:56;;;;;;;1.85;0.98;;;;;;;;;;5090583;28;20818;-66
2024/04/04 01:44:23;;;;;;;1.60;1.27;;;;;;;;;;5090534;28;20206;-67
2024/04/04 01:46:49;;;;;;;1.10;1.00;;;;;;;;;;5090743;28;20475;-66
2024/04/04 01:49:16;;;;;;;2.20;1.30;;;;;;;;;;5087424;28;21000;-67
2024/04/04 01:51:43;;;;;;;2.10;1.70;;;;;;;;;;5090322;28;21181;-67
2024/04/04 01:54:11;;;;;;;1.00;1.00;;;;;;;;;;5090456;28;20834;-67
2024/04/04 01:56:37;;;;;;;1.30;1.00;;;;;;;;;;5090847;28;20968;-66
2024/04/04 01:59:06;;;;;;;1.57;1.20;;;;;;;;;;5090703;28;20492;-67
2024/04/04 02:01:32;;;;;;;1.30;1.17;;;;;;;;;;5090352;28;20455;-67
2024/04/04 02:03:59;;;;;;;3.23;1.10;;;;;;;;;;5090439;28;20293;-67
2024/04/04 02:06:26;;;;;;;1.50;1.23;;;;;;;;;;5090224;28;20467;-67
2024/04/04 02:08:53;;;;;;;1.20;1.20;;;;;;;;;;5090743;28;20263;-66
2024/04/04 02:11:19;;;;;;;3.38;1.20;;;;;;;;;;5090247;28;20205;-66
2024/04/04 02:13:47;;;;;;;1.15;1.05;;;;;;;;;;5090657;28;20298;-67
2024/04/04 02:16:16;;;;;;;1.85;1.38;;;;;;;;;;5090521;28;20242;-67
2024/04/04 02:18:44;;;;;;;1.00;1.00;;;;;;;;;;5090284;28;20594;-66
2024/04/04 02:21:10;;;;;;;1.00;1.00;;;;;;;;;;5090064;28;21038;-66
2024/04/04 02:23:37;;;;;;;1.33;1.10;;;;;;;;;;5090281;28;20947;-66
2024/04/04 02:26:03;;;;;;;2.20;1.00;;;;;;;;;;5090222;28;20478;-67
2024/04/04 02:28:30;;;;;;;1.33;0.90;;;;;;;;;;5090099;28;20198;-66
2024/04/04 02:30:56;;;;;;;1.55;1.20;;;;;;;;;;5090183;28;20303;-67
2024/04/04 02:33:25;;;;;;;1.30;1.20;;;;;;;;;;5089881;28;20224;-66
2024/04/04 02:35:52;;;;;;;2.37;2.17;;;;;;;;;;5090193;28;20474;-67
2024/04/04 02:38:19;;;;;;;3.20;1.23;;;;;;;;;;5090431;28;20889;-67
2024/04/04 02:40:45;;;;;;;1.10;0.90;;;;;;;;;;5089975;28;20564;-67
2024/04/04 02:43:12;;;;;;;1.40;0.95;;;;;;;;;;5089983;28;20205;-67
2024/04/04 02:45:38;;;;;;;1.00;0.82;;;;;;;;;;5090012;28;20226;-66
2024/04/04 02:48:06;;;;;;;1.47;1.40;;;;;;;;;;5090232;28;20264;-67
2024/04/04 02:50:34;;;;;;;1.15;1.05;;;;;;;;;;5090238;28;20439;-66
2024/04/04 02:53:01;;;;;;;1.10;1.00;;;;;;;;;;5090043;28;20585;-67
2024/04/04 02:55:28;;;;;;;0.97;0.97;;;;;;;;;;5089519;28;20477;-67
2024/04/04 02:57:55;;;;;;;1.30;1.17;;;;;;;;;;5092851;28;21009;-67
2024/04/04 03:00:21;;;;;;;1.05;1.05;;;;;;;;;;5093392;28;20318;-66
2024/04/04 03:02:48;;;;;;;2.13;1.15;;;;;;;;;;5093613;28;20201;-66
2024/04/04 03:05:15;;;;;;;2.57;1.30;;;;;;;;;;5093501;28;20224;-66
2024/04/04 03:07:43;;;;;;;1.00;1.00;;;;;;;;;;5093841;28;20931;-66
2024/04/04 03:10:09;;;;;;;2.33;1.20;;;;;;;;;;5093538;28;20198;-67
2024/04/04 03:12:37;;;;;;;1.30;1.17;;;;;;;;;;5092974;28;20208;-67
2024/04/04 03:15:04;;;;;;;1.52;1.33;;;;;;;;;;5093345;28;20258;-67
2024/04/04 03:17:31;;;;;;;1.53;1.30;;;;;;;;;;5093413;28;20198;-67
2024/04/04 03:19:57;;;;;;;3.47;1.17;;;;;;;;;;5093356;28;20581;-67
2024/04/04 03:22:24;;;;;;;1.40;1.13;;;;;;;;;;5093148;28;20502;-66
2024/04/04 03:24:51;;;;;;;2.75;2.00;;;;;;;;;;5092970;28;20551;-67
2024/04/04 03:27:18;;;;;;;1.30;1.10;;;;;;;;;;5092870;28;20242;-67
2024/04/04 03:29:45;;;;;;;1.50;1.02;;;;;;;;;;5093273;28;20212;-66
2024/04/04 03:32:12;;;;;;;2.22;1.58;;;;;;;;;;5093025;28;20643;-67
2024/04/04 03:34:38;;;;;;;1.73;1.63;;;;;;;;;;5093186;28;20210;-66
2024/04/04 03:37:05;;;;;;;1.00;1.00;;;;;;;;;;5092922;28;20248;-67
2024/04/04 03:39:32;;;;;;;3.85;1.20;;;;;;;;;;5092498;28;20626;-66
2024/04/04 03:42:01;;;;;;;1.73;1.63;;;;;;;;;;5092710;28;20210;-67
2024/04/04 03:44:28;;;;;;;1.83;1.63;;;;;;;;;;5092958;28;20455;-67
2024/04/04 03:46:54;;;;;;;1.40;1.30;;;;;;;;;;5092899;28;20221;-67
2024/04/04 03:49:22;;;;;;;1.10;1.10;;;;;;;;;;5091363;28;20199;-67
2024/04/04 03:51:49;;;;;;;1.30;1.30;;;;;;;;;;5092413;28;20213;-66
2024/04/04 03:54:16;;;;;;;2.00;1.50;;;;;;;;;;5092852;28;20445;-67
2024/04/04 03:56:42;;;;;;;1.50;1.40;;;;;;;;;;5092606;28;21085;-66
2024/04/04 03:59:11;;;;;;;1.47;1.30;;;;;;;;;;5092585;28;20775;-66
2024/04/04 04:01:37;;;;;;;4.57;2.45;;;;;;;;;;5092153;28;20444;-67
2024/04/04 04:04:04;;;;;;;2.50;2.30;;;;;;;;;;5092209;28;20206;-66
2024/04/04 04:06:30;;;;;;;3.37;1.93;;;;;;;;;;5092535;28;20247;-67
2024/04/04 04:08:57;;;;;;;2.10;1.73;;;;;;;;;;5092272;28;20444;-67
2024/04/04 04:11:24;;;;;;;1.73;1.63;;;;;;;;;;5092189;28;20552;-66
2024/04/04 04:13:51;;;;;;;1.73;1.63;;;;;;;;;;5092374;28;20765;-67
2024/04/04 04:16:18;;;;;;;5.77;2.17;;;;;;;;;;5092125;28;20556;-67
2024/04/04 04:18:45;;;;;;;1.80;1.70;;;;;;;;;;5092066;28;20990;-66
2024/04/04 04:21:20;;;;;;;1.43;1.33;;;;;;;;;;5092028;28;20477;-67
2024/04/04 04:23:47;;;;;;;1.70;1.60;;;;;;;;;;5092157;28;20460;-66
2024/04/04 04:26:14;;;;;;;1.90;1.80;;;;;;;;;;5092092;28;20472;-67
2024/04/04 04:28:41;;;;;;;2.20;1.30;;;;;;;;;;5092014;28;20998;-66
2024/04/04 04:31:21;;;;;;;1.00;1.00;;;;;;;;;;5091653;28;20451;-67
2024/04/04 04:33:50;;;;;;;2.23;1.57;;;;;;;;;;5092155;28;20847;-66
2024/04/04 04:36:16;;;;;;;1.27;1.27;;;;;;;;;;5091751;28;20469;-66
2024/04/04 04:38:43;;;;;;;2.93;1.80;;;;;;;;;;5091748;28;20445;-66
2024/04/04 04:41:09;;;;;;;1.80;1.20;;;;;;;;;;5091392;28;20574;-66
2024/04/04 04:43:37;;;;;;;1.83;1.50;;;;;;;;;;5091632;28;20454;-67
2024/04/04 04:46:03;;;;;;;1.20;1.10;;;;;;;;;;5091495;28;20469;-66
2024/04/04 04:48:30;;;;;;;1.90;1.80;;;;;;;;;;5091672;28;20444;-66
2024/04/04 04:50:58;;;;;;;1.90;1.80;;;;;;;;;;5091396;28;20441;-66
2024/04/04 04:53:25;;;;;;;1.60;1.50;;;;;;;;;;5091260;28;20503;-66
2024/04/04 04:55:51;;;;;;;1.93;1.83;;;;;;;;;;5091413;28;20464;-67
2024/04/04 04:58:19;;;;;;;2.70;1.80;;;;;;;;;;5091367;28;20576;-66
2024/04/04 05:00:45;;;;;;;1.77;1.67;;;;;;;;;;5091533;28;20576;-66
2024/04/04 05:03:12;;;;;;;1.90;1.80;;;;;;;;;;5091174;28;20449;-66
2024/04/04 05:05:39;;;;;;;2.97;2.10;;;;;;;;;;5091259;28;20556;-66
2024/04/04 05:08:08;;;;;;;3.73;3.43;;;;;;;;;;5091424;28;20837;-66
2024/04/04 05:10:34;;;;;;;2.43;2.20;;;;;;;;;;5091207;28;20449;-66
2024/04/04 05:13:01;;;;;;;2.97;2.37;;;;;;;;;;5091069;28;20492;-66
2024/04/04 05:15:27;;;;;;;3.50;3.20;;;;;;;;;;5091481;28;20500;-67
2024/04/04 05:17:54;;;;;;;2.70;2.40;;;;;;;;;;5091484;28;20453;-67
2024/04/04 05:20:20;;;;;;;4.70;3.30;;;;;;;;;;5090523;28;20939;-66
2024/04/04 05:22:47;;;;;;;3.90;2.90;;;;;;;;;;5091013;28;20887;-66
2024/04/04 05:25:15;;;;;;;3.17;2.93;;;;;;;;;;5090750;28;20480;-67
2024/04/04 05:27:42;;;;;;;3.50;3.20;;;;;;;;;;5090965;28;20500;-66
2024/04/04 05:30:10;;;;;;;;;;;;;;;;;;5091317;28;20443;-67
2024/04/04 05:32:37;;;;;;;3.70;3.40;;;;;;;;;;5090792;28;20047;-66
2024/04/04 05:35:04;;;;;;;2.90;2.70;;;;;;;;;;5090815;28;20849;-66
2024/04/04 05:37:31;;;;;;;;;;;;;;;;;;5091438;28;19920;-66
2024/04/04 05:39:57;;;;;;;2.47;2.30;;;;;;;;;;5090781;28;20293;-66
2024/04/04 05:42:28;;;;;;;3.97;2.30;;;;;;;;;;5090791;28;20452;-66
2024/04/04 05:44:54;;;;;;;2.50;2.30;;;;;;;;;;5090958;28;20889;-66
2024/04/04 05:47:21;;;;;;;3.60;2.07;;;;;;;;;;5090770;28;20481;-66
2024/04/04 05:49:47;;;;;;;4.13;2.10;;;;;;;;;;5090794;28;20448;-66
2024/04/04 05:52:15;;;;;;;7.83;6.87;;;;;;;;;;5090499;28;20449;-66
2024/04/04 05:54:41;;;;;;;3.77;3.23;;;;;;;;;;5090477;28;20870;-66
2024/04/04 05:57:08;;;;;;;5.90;3.30;;;;;;;;;;5089972;28;20456;-67
2024/04/04 05:59:36;;;;;;;11.90;3.87;;;;;;;;;;5090561;28;20533;-67
2024/04/04 06:02:03;;;;;;;3.40;2.30;;;;;;;;;;5090602;28;20480;-67
2024/04/04 06:04:30;;;;;;;3.10;2.80;;;;;;;;;;5090388;28;20821;-66
2024/04/04 06:06:57;;;;;;;2.40;2.00;;;;;;;;;;5090612;28;20470;-66
2024/04/04 06:09:23;;;;;;;3.27;1.70;;;;;;;;;;5090716;28;20965;-65
2024/04/04 06:11:50;;;;;;;4.57;2.90;;;;;;;;;;5090413;28;20466;-66
2024/04/04 06:14:16;;;;;;;3.63;3.07;;;;;;;;;;5090565;28;20545;-66
2024/04/04 06:16:45;;;;;;;2.13;1.93;;;;;;;;;;5090393;28;20469;-66
2024/04/04 06:19:11;;;;;;;2.70;1.57;;;;;;;;;;5090589;28;20950;-66
2024/04/04 06:21:39;;;;;;;5.50;2.40;;;;;;;;;;5089719;28;20995;-66
2024/04/04 06:24:05;;;;;;;2.70;2.23;;;;;;;;;;5090411;28;21060;-66
2024/04/04 06:26:32;;;;;;;3.63;2.17;;;;;;;;;;5090436;28;20462;-66
2024/04/04 06:28:58;;;;;;;3.73;1.50;;;;;;;;;;5090348;28;20525;-66
2024/04/04 06:31:26;;;;;;;2.10;1.77;;;;;;;;;;5092225;28;20510;-66
2024/04/04 06:33:53;;;;;;;2.30;1.70;;;;;;;;;;5094511;28;20442;-66
2024/04/04 06:36:20;;;;;;;3.57;2.20;;;;;;;;;;5094202;28;20470;-66
2024/04/04 06:38:46;;;;;;;4.63;1.90;;;;;;;;;;5094264;28;20876;-66
2024/04/04 06:41:14;;;;;;;3.47;1.50;;;;;;;;;;5093898;28;20903;-66
2024/04/04 06:43:40;;;;;;;2.90;1.60;;;;;;;;;;5092954;28;20456;-66
2024/04/04 06:46:07;;;;;;;2.70;2.47;;;;;;;;;;5094207;28;20469;-66
2024/04/04 06:48:33;;;;;;;2.50;1.70;;;;;;;;;;5094139;28;20517;-65
2024/04/04 06:51:02;;;;;;;3.53;1.37;;;;;;;;;;5094144;28;20894;-66
2024/04/04 06:53:28;;;;;;;3.80;1.50;;;;;;;;;;5093800;28;20442;-65
2024/04/04 06:55:55;;;;;;;2.40;1.80;;;;;;;;;;5093761;28;20537;-66
2024/04/04 06:58:21;;;;;;;4.33;1.70;;;;;;;;;;5091217;28;20473;-66
2024/04/04 07:00:56;;;;;;;3.97;1.40;;;;;;;;;;5092947;28;20477;-66
2024/04/04 07:03:22;;;;;;;2.20;1.53;;;;;;;;;;5093378;28;20449;-66
2024/04/04 07:05:50;;;;;;;3.33;2.03;;;;;;;;;;5093213;28;20507;-66
2024/04/04 07:08:18;;;;;;;1.60;1.33;;;;;;;;;;5093032;28;20447;-66
2024/04/04 07:10:45;;;;;;;4.60;1.50;;;;;;;;;;5092902;28;20447;-66
2024/04/04 07:13:11;;;;;;;4.43;1.63;;;;;;;;;;5093035;28;20457;-66
2024/04/04 07:15:38;;;;;;;6.10;1.77;;;;;;;;;;5092990;28;20488;-67
2024/04/04 07:18:09;;;;;;;2.80;1.70;;;;;;;;;;5093246;28;20442;-66
2024/04/04 07:20:36;;;;;;;1.77;0.97;;;;;;;;;;5092803;28;20489;-66
2024/04/04 07:23:03;;;;;;;2.23;1.60;;;;;;;;;;5092600;28;20529;-66
2024/04/04 07:25:31;;;;;;;1.30;1.20;;;;;;;;;;5092610;28;20482;-66
2024/04/04 07:27:57;;;;;;;1.80;1.30;;;;;;;;;;5093044;28;20820;-66
2024/04/04 07:30:24;;;;;;;4.30;1.57;;;;;;;;;;5092889;28;20529;-66
2024/04/04 07:32:50;;;;;;;5.30;1.50;;;;;;;;;;5092555;28;20521;-66
2024/04/04 07:35:18;;;;;;;1.70;1.40;;;;;;;;;;5092220;28;20473;-66
2024/04/04 07:37:44;;;;;;;6.07;1.37;;;;;;;;;;5085311;28;20827;-66
2024/04/04 07:40:12;;;;;;;3.73;2.53;;;;;;;;;;5092366;28;20904;-66
2024/04/04 07:42:39;;;;;;;4.00;1.87;;;;;;;;;;5088401;28;20448;-66
2024/04/04 07:45:07;;;;;;;1.27;1.10;;;;;;;;;;5092017;28;20468;-66
2024/04/04 07:47:33;;;;;;;6.80;2.27;;;;;;;;;;5092153;28;20439;-67
2024/04/04 07:50:07;;;;;;;4.57;2.27;;;;;;;;;;5091987;28;20830;-66
2024/04/04 07:52:33;;;;;;;1.87;1.37;;;;;;;;;;5092095;28;20448;-67
2024/04/04 07:55:00;;;;;;;2.40;1.33;;;;;;;;;;5092068;28;20435;-66
2024/04/04 07:57:26;;;;;;;2.40;1.63;;;;;;;;;;5087814;28;20997;-67
2024/04/04 07:59:55;;;;;;;2.77;0.93;;;;;;;;;;5092020;28;20492;-66
2024/04/04 08:02:22;;;;;;;3.73;1.90;;;;;;;;;;5091929;28;20442;-66
2024/04/04 08:04:49;;;;;;;2.67;1.40;;;;;;;;;;5092051;28;20963;-67
2024/04/04 08:07:16;;;;;;;7.03;1.60;;;;;;;;;;5092460;28;20446;-67
2024/04/04 08:09:43;;;;;;;1.93;1.67;;;;;;;;;;5092361;28;20455;-67
2024/04/04 08:12:09;;;;;;;3.20;1.60;;;;;;;;;;5092092;28;20450;-66
2024/04/04 08:14:37;;;;;;;4.33;1.40;;;;;;;;;;5092081;28;20452;-67
2024/04/04 08:17:05;;;;;;;3.33;1.60;;;;;;;;;;5092359;28;20829;-67
2024/04/04 08:19:32;;;;;;;5.93;2.60;;;;;;;;;;5092354;28;20484;-67
2024/04/04 08:21:58;;;;;;;1.60;1.20;;;;;;;;;;5091938;28;20483;-68
2024/04/04 08:24:25;;;;;;;4.20;1.93;;;;;;;;;;5092006;28;20452;-67
2024/04/04 08:26:52;;;;;;;3.87;1.40;;;;;;;;;;5091911;28;20472;-67
2024/04/04 08:29:19;;;;;;;4.67;2.20;;;;;;;;;;5092289;28;20882;-67
2024/04/04 08:31:45;;;;;;;5.60;2.20;;;;;;;;;;5091790;28;20451;-67
2024/04/04 08:34:13;;;;;;;4.33;2.70;;;;;;;;;;5091909;28;20944;-67
2024/04/04 08:36:40;;;;;;;4.07;3.03;;;;;;;;;;5091701;28;20554;-67
2024/04/04 08:39:08;;;;;;;2.80;1.67;;;;;;;;;;5091898;28;20446;-67
2024/04/04 08:41:35;;;;;;;3.10;2.80;;;;;;;;;;5091315;28;20582;-67
2024/04/04 08:44:05;;;;;;;1.57;1.47;;;;;;;;;;5091773;28;20522;-68
2024/04/04 08:46:32;;;;;;;7.67;1.87;;;;;;;;;;5091601;28;20503;-67
2024/04/04 08:49:00;;;;;;;3.30;1.80;;;;;;;;;;5091737;28;20471;-68
2024/04/04 08:51:27;;;;;;;1.73;1.23;;;;;;;;;;5091254;28;21079;-68
2024/04/04 08:53:55;;;;;;;1.57;1.03;;;;;;;;;;5090821;28;20475;-67
2024/04/04 08:56:21;;;;;;;2.77;2.13;;;;;;;;;;5090017;28;20466;-68
2024/04/04 08:58:48;;;;;;;1.83;1.30;;;;;;;;;;5090453;28;20446;-68
2024/04/04 09:01:15;;;;;;;5.70;1.63;;;;;;;;;;5090237;28;20483;-68
2024/04/04 09:03:43;;;;;;;1.13;1.00;;;;;;;;;;5091244;28;20501;-67
2024/04/04 09:06:09;;;;;;;6.70;1.50;;;;;;;;;;5091355;28;20467;-67
2024/04/04 09:08:38;;;;;;;3.70;1.27;;;;;;;;;;5091250;28;20448;-68
2024/04/04 09:11:05;;;;;;;2.70;1.50;;;;;;;;;;5091096;28;20448;-67
2024/04/04 09:13:32;;;;;;;1.53;1.43;;;;;;;;;;5091361;28;20473;-67
2024/04/04 09:16:01;;;;;;;2.73;1.20;;;;;;;;;;5091302;28;20579;-68
2024/04/04 09:18:29;;;;;;;2.40;1.57;;;;;;;;;;5091458;28;20449;-68
2024/04/04 09:20:58;;;;;;;2.00;1.10;;;;;;;;;;5090811;28;20570;-68
2024/04/04 09:23:26;;;;;;;4.80;2.23;;;;;;;;;;5090720;28;20532;-68
2024/04/04 09:25:53;;;;;;;2.70;1.40;;;;;;;;;;5091291;28;20474;-68
2024/04/04 09:28:20;;;;;;;2.30;1.50;;;;;;;;;;5091005;28;20514;-68
2024/04/04 09:30:49;;;;;;;2.80;2.33;;;;;;;;;;5091091;28;20553;-68
2024/04/04 09:33:20;;;;;;;2.47;2.20;;;;;;;;;;5090709;28;20497;-68
2024/04/04 09:35:46;;;;;;;5.33;2.00;;;;;;;;;;5089522;28;20491;-68
2024/04/04 09:38:15;;;;;;;2.33;1.33;;;;;;;;;;5089383;28;20529;-70
2024/04/04 09:40:43;;;;;;;1.57;1.37;;;;;;;;;;5090437;28;20494;-70
2024/04/04 09:43:11;;;;;;;4.93;2.27;;;;;;;;;;5090402;28;20475;-69
2024/04/04 09:45:41;;;;;;;2.50;1.60;;;;;;;;;;5090481;28;20465;-69
2024/04/04 09:48:09;;;;;;;3.03;1.90;;;;;;;;;;5090173;28;20479;-69
2024/04/04 09:50:35;;;;;;;3.10;1.63;;;;;;;;;;5090473;28;20440;-70
2024/04/04 09:53:03;;;;;;;2.40;1.87;;;;;;;;;;5090191;28;20449;-70
2024/04/04 09:55:29;;;;;;;2.50;1.33;;;;;;;;;;5084964;28;20467;-68
2024/04/04 09:57:57;;;;;;;3.20;1.83;;;;;;;;;;5089691;28;20495;-69
2024/04/04 10:00:27;;;;;;;1.90;1.23;;;;;;;;;;5109760;28;20450;-69
2024/04/04 10:02:55;;;;;;;1.90;1.60;;;;;;;;;;5109781;28;20459;-68
2024/04/04 10:05:22;;;;;;;4.90;1.70;;;;;;;;;;5101080;28;20555;-69
2024/04/04 10:07:50;;;;;;;5.60;1.40;;;;;;;;;;5094088;28;20458;-68
2024/04/04 10:10:19;;;;;;;6.33;1.43;;;;;;;;;;5093912;28;20821;-67
2024/04/04 10:12:46;;;;;;;3.57;1.40;;;;;;;;;;5093581;28;20450;-68
2024/04/04 10:15:16;;;;;;;1.50;1.37;;;;;;;;;;5093746;28;20467;-68
2024/04/04 10:17:46;;;;;;;2.00;1.27;;;;;;;;;;5093635;28;20449;-68
2024/04/04 10:20:12;;;;;;;2.40;1.27;;;;;;;;;;5094049;28;20449;-68
2024/04/04 10:22:40;;;;;;;3.67;1.20;;;;;;;;;;5093289;28;20451;-68
2024/04/04 10:25:07;;;;;;;5.37;1.93;;;;;;;;;;5093358;28;20487;-68
2024/04/04 10:27:34;;;;;;;3.20;1.37;;;;;;;;;;5093130;28;20475;-69
2024/04/04 10:30:00;;;;;;;5.30;1.37;;;;;;;;;;5093497;28;20463;-68
2024/04/04 10:32:30;;;;;;;2.10;1.43;;;;;;;;;;5093253;28;20446;-68
2024/04/04 10:35:02;;;;;;;2.40;1.20;;;;;;;;;;5092725;28;20531;-69
2024/04/04 10:37:29;;;;;;;1.90;1.50;;;;;;;;;;5092736;28;20479;-69
2024/04/04 10:39:56;;;;;;;2.63;2.07;;;;;;;;;;5080712;28;20463;-69
2024/04/04 10:42:23;;;;;;;2.47;1.80;;;;;;;;;;5094482;28;21822;-68
2024/04/04 10:44:50;;;;;;;2.30;1.67;;;;;;;;;;5092324;28;20545;-68
2024/04/04 10:47:17;;;;;;;2.07;1.23;;;;;;;;;;5101061;28;20455;-69
2024/04/04 10:49:43;;;;;;;3.73;1.80;;;;;;;;;;5098671;28;20447;-69
2024/04/04 10:52:12;;;;;;;3.97;1.63;;;;;;;;;;5106344;28;20521;-68
2024/04/04 10:54:38;;;;;;;1.60;1.50;;;;;;;;;;5103667;28;20443;-68
2024/04/04 10:57:06;;;;;;;1.30;1.00;;;;;;;;;;5087041;28;20551;-69
2024/04/04 10:59:32;;;;;;;2.20;1.73;;;;;;;;;;5093643;28;21023;-68
2024/04/04 11:02:02;;;;;;;2.50;1.87;;;;;;;;;;5096847;28;20484;-69
2024/04/04 11:04:30;;;;;;;6.40;3.37;;;;;;;;;;5098097;28;20470;-69
2024/04/04 11:06:58;;;;;;;3.80;1.80;;;;;;;;;;5106150;28;20459;-69
2024/04/04 11:09:26;;;;;;;3.30;1.33;;;;;;;;;;5092210;28;21240;-69
2024/04/04 11:11:54;;;;;;;2.90;1.63;;;;;;;;;;5102208;28;20536;-69
2024/04/04 11:14:20;;;;;;;1.90;1.70;;;;;;;;;;5092226;28;20442;-68
2024/04/04 11:16:49;;;;;;;2.17;1.47;;;;;;;;;;5100998;28;21021;-69
2024/04/04 11:19:16;;;;;;;5.53;2.00;;;;;;;;;;5108546;28;20468;-69
2024/04/04 11:21:44;;;;;;;2.77;1.77;;;;;;;;;;5099985;28;20479;-68
2024/04/04 11:24:10;;;;;;;4.00;1.83;;;;;;;;;;5092507;28;20462;-68
2024/04/04 11:26:39;;;;;;;4.03;1.70;;;;;;;;;;5104769;28;20467;-67
2024/04/04 11:29:05;;;;;;;4.73;1.97;;;;;;;;;;5092695;28;20447;-68
2024/04/04 11:31:32;;;;;;;6.10;1.90;;;;;;;;;;5104094;28;21022;-68
2024/04/04 11:33:59;;;;;;;3.80;2.00;;;;;;;;;;5102864;28;20523;-68
2024/04/04 11:36:26;;;;;;;3.50;1.93;;;;;;;;;;5110605;28;20467;-68
2024/04/04 11:38:52;;;;;;;8.50;3.43;;;;;;;;;;5101031;28;20443;-68
2024/04/04 11:41:19;;;;;;;4.37;1.97;;;;;;;;;;5096970;28;20482;-67
2024/04/04 11:43:47;;;;;;;1.57;1.47;;;;;;;;;;5094399;28;20441;-68
2024/04/04 11:46:15;;;;;;;1.97;1.33;;;;;;;;;;5107225;28;20525;-69
2024/04/04 11:48:41;;;;;;;4.23;2.60;;;;;;;;;;5105097;28;20968;-68
2024/04/04 11:51:08;;;;;;;4.20;3.03;;;;;;;;;;5110207;28;20944;-68
2024/04/04 11:53:35;;;;;;;3.57;2.97;;;;;;;;;;5100204;28;20449;-68
2024/04/04 11:56:02;;;;;;;5.55;2.05;;;;;;;;;;5096199;28;20498;-68
2024/04/04 11:58:29;;;;;;;3.30;2.10;;;;;;;;;;5107786;28;20465;-68
2024/04/04 12:00:58;;;;;;;2.63;1.83;;;;;;;;;;5102595;28;20491;-68
2024/04/04 12:03:24;;;;;;;3.20;2.27;;;;;;;;;;5093557;28;20452;-68
2024/04/04 12:05:52;;;;;;;4.80;2.40;;;;;;;;;;5099600;28;20492;-68
2024/04/04 12:08:18;;;;;;;3.17;2.10;;;;;;;;;;5093562;28;20466;-68
2024/04/04 12:10:45;;;;;;;3.87;1.70;;;;;;;;;;5103978;28;20453;-68
2024/04/04 12:13:12;;;;;;;3.83;1.53;;;;;;;;;;5101777;28;20440;-68
2024/04/04 12:15:40;;;;;;;2.77;1.40;;;;;;;;;;5096017;28;20920;-68
2024/04/04 12:20:54;;;;;;;2.80;2.20;;;;;;;;;;5103016;28;20490;-67
2024/04/04 12:23:20;;;;;;;5.60;3.60;;;;;;;;;;5104534;28;20439;-68
2024/04/04 12:25:48;;;;;;;3.97;3.60;;;;;;;;;;5092420;28;20575;-68
2024/04/04 12:28:17;;;;;;;6.67;2.97;;;;;;;;;;5096709;28;20445;-68
2024/04/04 12:30:44;;;;;;;5.43;2.90;;;;;;;;;;5102642;28;20539;-67
2024/04/04 12:33:12;;;;;;;4.70;2.10;;;;;;;;;;5102792;28;20542;-68
2024/04/04 12:35:39;;;;;;;1.20;1.10;;;;;;;;;;5095439;28;20517;-68
2024/04/04 12:38:07;;;;;;;1.33;1.10;;;;;;;;;;5107657;28;20502;-68
2024/04/04 12:40:34;;;;;;;2.77;1.70;;;;;;;;;;5097402;28;20964;-68
2024/04/04 12:43:00;;;;;;;3.17;1.83;;;;;;;;;;5100384;28;20575;-69
2024/04/04 12:45:27;;;;;;;3.27;2.43;;;;;;;;;;5104564;28;20459;-68
2024/04/04 12:47:53;;;;;;;6.43;4.20;;;;;;;;;;5094520;28;20534;-68
2024/04/04 12:50:24;;;;;;;3.83;1.30;;;;;;;;;;5106395;28;20465;-68
2024/04/04 12:52:51;;;;;;;15.80;5.20;;;;;;;;;;5099764;28;21000;-67
2024/04/04 12:55:18;;;;;;;6.33;2.77;;;;;;;;;;5097407;28;20544;-67
2024/04/04 12:57:45;;;;;;;7.27;4.83;;;;;;;;;;5091435;28;20432;-67
2024/04/04 13:00:12;;;;;;;6.53;4.03;;;;;;;;;;5090059;28;20444;-68
2024/04/04 13:02:38;;;;;;;6.90;3.40;;;;;;;;;;5091230;28;20475;-67
2024/04/04 13:05:06;;;;;;;6.23;3.63;;;;;;;;;;5091514;28;20460;-67
2024/04/04 13:07:34;;;;;;;7.97;2.30;;;;;;;;;;5091216;28;20655;-66
2024/04/04 13:10:02;;;;;;;8.53;3.43;;;;;;;;;;5092773;28;20451;-66
2024/04/04 13:12:28;;;;;;;4.00;2.27;;;;;;;;;;5090759;28;20448;-66
2024/04/04 13:14:55;;;;;;;11.73;3.90;;;;;;;;;;5091399;28;20450;-66
2024/04/04 13:17:21;;;;;;;6.53;4.00;;;;;;;;;;5091381;28;20445;-66
2024/04/04 13:19:49;;;;;;;11.47;4.70;;;;;;;;;;5091790;28;20443;-66
2024/04/04 13:22:15;;;;;;;2.80;2.00;;;;;;;;;;5091945;28;20476;-66
2024/04/04 13:24:43;;;;;;;1.70;1.47;;;;;;;;;;5094149;28;20461;-65
2024/04/04 13:27:09;;;;;;;1.17;1.07;;;;;;;;;;5101594;28;20447;-66
2024/04/04 13:29:37;;;;;;;3.07;1.37;;;;;;;;;;5095059;28;20499;-65
2024/04/04 13:32:03;;;;;;;1.97;1.33;;;;;;;;;;5106498;28;20433;-66
2024/04/04 13:34:30;;;;;;;1.47;1.40;;;;;;;;;;5096404;28;20531;-66
2024/04/04 13:36:56;;;;;;;1.30;1.17;;;;;;;;;;5096660;28;20557;-66
2024/04/04 13:39:24;;;;;;;1.63;0.87;;;;;;;;;;5089335;28;20488;-66
2024/04/04 13:41:51;;;;;;;2.30;1.50;;;;;;;;;;5089674;28;20486;-66
2024/04/04 13:44:20;;;;;;;1.03;0.93;;;;;;;;;;5103319;28;20453;-66
2024/04/04 13:46:46;;;;;;;1.53;1.30;;;;;;;;;;5101532;28;20467;-66
2024/04/04 13:49:14;;;;;;;3.50;0.90;;;;;;;;;;5098795;28;21166;-66
2024/04/04 13:51:40;;;;;;;1.30;0.73;;;;;;;;;;5089928;28;20446;-66
2024/04/04 13:54:07;;;;;;;3.43;1.23;;;;;;;;;;5096889;28;20495;-66
2024/04/04 13:56:34;;;;;;;2.60;1.80;;;;;;;;;;5108904;28;20471;-66
2024/04/04 13:59:03;;;;;;;1.37;1.23;;;;;;;;;;5089824;28;20504;-66
2024/04/04 14:01:33;;;;;;;2.20;1.40;;;;;;;;;;5101931;28;21030;-65
2024/04/04 14:04:00;;;;;;;2.90;1.10;;;;;;;;;;5099956;28;20442;-66
2024/04/04 14:06:26;;;;;;;1.23;0.70;;;;;;;;;;5102700;28;20531;-66
2024/04/04 14:08:54;;;;;;;10.53;2.30;;;;;;;;;;5095126;28;20442;-65
2024/04/04 14:11:21;;;;;;;2.00;0.87;;;;;;;;;;5093996;28;20844;-65
2024/04/04 14:13:48;;;;;;;1.60;0.87;;;;;;;;;;5105875;28;20449;-65
2024/04/04 14:16:15;;;;;;;2.10;1.10;;;;;;;;;;5102617;28;20467;-65
2024/04/04 14:18:43;;;;;;;1.33;1.13;;;;;;;;;;5102763;28;20446;-65
2024/04/04 14:21:10;;;;;;;1.30;1.20;;;;;;;;;;5107801;28;21007;-65
2024/04/04 14:23:37;;;;;;;3.20;0.77;;;;;;;;;;5102558;28;20489;-65
2024/04/04 14:26:03;;;;;;;3.80;1.10;;;;;;;;;;5102728;28;20939;-64
2024/04/04 14:28:30;;;;;;;3.10;0.90;;;;;;;;;;5104672;28;21006;-65
2024/04/04 14:30:56;;;;;;;1.50;1.33;;;;;;;;;;5092030;28;20521;-65
2024/04/04 14:33:25;;;;;;;4.40;2.90;;;;;;;;;;5102452;28;20430;-65
2024/04/04 14:35:51;;;;;;;6.63;2.53;;;;;;;;;;5100257;28;20456;-64
2024/04/04 14:38:18;;;;;;;2.97;2.53;;;;;;;;;;5105684;28;20438;-63
2024/04/04 14:40:46;;;;;;;1.23;0.80;;;;;;;;;;5106902;28;20445;-65
2024/04/04 14:43:13;;;;;;;1.50;0.83;;;;;;;;;;5099614;28;20477;-65
2024/04/04 14:45:39;;;;;;;1.50;0.90;;;;;;;;;;5094252;28;20458;-65